Terminal Aerodrome Forecast
Issued by NWS

Home | Current Version | Previous Version | Text Only | Print | Product List | Glossary On
Versions: 1 2 3 4 5 6 7 8 9 10 11 12 13 14 15 16 17 18 19
000
FTUS43 KDTX 101900 AAA
TAFDET
TAF AMD
KDET 101934Z 1020/1118 12006KT P6SM BKN060
     FM102300 10005KT P6SM SCT060
     FM110200 VRB03KT P6SM SKC
     FM111500 14006KT P6SM SCT050=

USA.gov is the U.S. government's official web portal to all federal, state and local government web resources and services.